createdAt,value
2018-06-02T00:02:21.112Z,19.20
2018-06-02T00:04:49.520Z,19.20
2018-06-02T00:10:15.680Z,19.10
2018-06-02T00:12:46.107Z,19.10
2018-06-02T00:20:36.411Z,19.00
2018-06-02T00:23:04.808Z,19.00
2018-06-02T00:25:44.221Z,18.90
2018-06-02T00:28:13.680Z,18.90
2018-06-02T00:33:23.471Z,18.80
2018-06-02T00:40:58.554Z,18.60
2018-06-02T00:43:30.945Z,18.60
2018-06-02T00:48:36.780Z,18.50
2018-06-02T00:51:09.638Z,18.40
2018-06-02T00:53:37.991Z,18.40
2018-06-02T00:56:06.193Z,18.40
2018-06-02T00:58:33.929Z,18.40
2018-06-02T01:01:01.478Z,18.30
2018-06-02T01:03:29.229Z,18.30
2018-06-02T01:05:59.932Z,18.30
2018-06-02T01:08:28.713Z,18.30
2018-06-02T01:10:56.484Z,18.30
2018-06-02T01:13:23.962Z,18.30
2018-06-02T01:15:55.927Z,18.30
2018-06-02T01:18:23.427Z,18.30
2018-06-02T01:20:51.909Z,18.30
2018-06-02T01:23:19.434Z,18.30
2018-06-02T01:25:47.172Z,18.20
2018-06-02T01:28:15.493Z,18.20
2018-06-02T01:30:43.472Z,18.20
2018-06-02T01:33:11.687Z,18.20
2018-06-02T01:35:40.671Z,18.10
2018-06-02T01:38:08.335Z,18.10
2018-06-02T01:40:35.856Z,18.10
2018-06-02T01:43:03.337Z,18.10
2018-06-02T01:45:30.827Z,18.00
2018-06-02T01:47:58.406Z,18.00
2018-06-02T01:50:25.889Z,18.00
2018-06-02T01:52:54.142Z,18.00
2018-06-02T01:55:21.715Z,17.90
2018-06-02T01:57:49.215Z,17.90
2018-06-02T02:00:16.731Z,17.90
2018-06-02T02:02:44.647Z,17.90
2018-06-02T02:05:12.916Z,17.80
2018-06-02T02:07:40.690Z,17.80
2018-06-02T02:10:09.394Z,17.80
2018-06-02T02:12:37.776Z,17.80
2018-06-02T02:15:05.436Z,17.80
2018-06-02T02:17:33.306Z,17.70
2018-06-02T02:20:01.056Z,17.60
2018-06-02T02:22:28.617Z,17.60
2018-06-02T02:24:57.790Z,17.50
2018-06-02T02:27:25.311Z,17.50
2018-06-02T02:29:52.892Z,17.50
2018-06-02T02:32:20.392Z,17.50
2018-06-02T02:34:48.742Z,17.50
2018-06-02T02:37:16.572Z,17.40
2018-06-02T02:39:44.302Z,17.50
2018-06-02T02:42:11.787Z,17.50
2018-06-02T02:44:39.285Z,17.50
2018-06-02T02:47:07.582Z,17.50
2018-06-02T02:49:35.940Z,17.50
2018-06-02T02:52:04.205Z,17.50
2018-06-02T02:54:31.725Z,17.50
2018-06-02T02:56:59.203Z,17.50
2018-06-02T02:59:26.767Z,17.50
2018-06-02T03:01:54.320Z,17.40
2018-06-02T03:04:21.851Z,17.40
2018-06-02T03:06:49.376Z,17.40
2018-06-02T03:09:16.855Z,17.40
2018-06-02T03:11:44.360Z,17.40
2018-06-02T03:14:12.074Z,17.30
2018-06-02T03:16:39.736Z,17.40
2018-06-02T03:19:07.454Z,17.30
2018-06-02T03:21:34.958Z,17.30
2018-06-02T03:24:02.447Z,17.30
2018-06-02T03:26:29.947Z,17.30
2018-06-02T03:28:57.439Z,17.20
2018-06-02T03:31:25.367Z,17.20
2018-06-02T03:33:52.891Z,17.20
2018-06-02T03:36:20.372Z,17.20
2018-06-02T03:38:48.176Z,17.30
2018-06-02T03:41:17.336Z,17.20
2018-06-02T03:43:44.840Z,17.20
2018-06-02T03:46:12.411Z,17.30
2018-06-02T03:48:40.072Z,17.20
2018-06-02T03:51:07.573Z,17.30
2018-06-02T03:53:35.064Z,17.30
2018-06-02T03:56:02.543Z,17.50
2018-06-02T03:58:30.283Z,17.60
2018-06-02T04:00:58.793Z,17.90
2018-06-02T04:03:26.315Z,17.90
2018-06-02T04:05:54.614Z,18.10
2018-06-02T04:08:22.086Z,18.10
2018-06-02T04:10:49.555Z,18.20
2018-06-02T04:13:17.036Z,18.20
2018-06-02T04:15:44.554Z,18.20
2018-06-02T04:18:12.815Z,18.10
2018-06-02T04:20:41.281Z,18.10
2018-06-02T04:23:09.533Z,18.00
2018-06-02T04:25:37.002Z,18.00
2018-06-02T04:28:05.257Z,18.00
2018-06-02T04:30:32.906Z,18.00
2018-06-02T04:33:00.649Z,18.00
2018-06-02T04:35:29.045Z,18.00
2018-06-02T04:37:56.559Z,18.00
2018-06-02T04:40:25.323Z,18.00
2018-06-02T04:42:52.833Z,18.00
2018-06-02T04:45:20.308Z,18.10
2018-06-02T04:47:47.797Z,18.10
2018-06-02T04:50:20.347Z,18.20
2018-06-02T04:52:47.832Z,18.20
2018-06-02T04:55:15.373Z,18.30
2018-06-02T04:57:42.851Z,18.30
2018-06-02T05:00:10.471Z,18.30
2018-06-02T05:02:37.957Z,18.40
2018-06-02T05:05:05.435Z,18.40
2018-06-02T05:07:32.946Z,18.50
2018-06-02T05:10:00.427Z,18.50
2018-06-02T05:12:27.915Z,18.60
2018-06-02T05:14:55.655Z,18.70
2018-06-02T05:17:23.136Z,18.70
2018-06-02T05:19:50.690Z,18.80
2018-06-02T05:22:18.240Z,18.90
2018-06-02T05:24:46.515Z,18.90
2018-06-02T05:27:14.126Z,19.00
2018-06-02T05:29:41.636Z,19.00
2018-06-02T05:32:10.431Z,19.10
2018-06-02T05:34:38.613Z,19.20
2018-06-02T05:37:10.686Z,19.40
2018-06-02T05:39:39.623Z,19.30
2018-06-02T05:42:07.373Z,19.40
2018-06-02T05:44:34.990Z,19.50
2018-06-02T05:47:04.354Z,19.70
2018-06-02T05:49:31.828Z,19.70
2018-06-02T05:51:59.532Z,19.80
2018-06-02T05:54:27.058Z,19.80
2018-06-02T05:56:54.572Z,19.90
2018-06-02T05:59:22.983Z,20.00
2018-06-02T06:01:50.474Z,20.10
2018-06-02T06:04:18.762Z,20.30
2018-06-02T06:06:46.475Z,20.30
2018-06-02T06:09:14.688Z,20.40
2018-06-02T06:11:44.534Z,20.50
2018-06-02T06:14:12.244Z,20.50
2018-06-02T06:16:41.525Z,20.70
2018-06-02T06:19:29.227Z,20.80
2018-06-02T06:21:56.712Z,20.80
2018-06-02T06:24:24.468Z,21.00
2018-06-02T06:26:53.261Z,21.00
2018-06-02T06:29:20.737Z,21.20
2018-06-02T06:31:48.222Z,21.20
2018-06-02T06:34:17.440Z,21.30
2018-06-02T06:36:45.648Z,21.30
2018-06-02T06:39:13.406Z,21.40
2018-06-02T06:41:41.959Z,21.50
2018-06-02T06:44:09.460Z,21.60
2018-06-02T06:46:37.056Z,21.70
2018-06-02T06:49:05.298Z,21.80
2018-06-02T06:51:33.571Z,21.80
2018-06-02T06:54:01.059Z,22.00
2018-06-02T06:56:29.336Z,22.10
2018-06-02T06:59:01.891Z,22.10
2018-06-02T07:01:32.763Z,22.30
2018-06-02T07:04:00.988Z,22.30
2018-06-02T07:06:28.897Z,22.40
2018-06-02T07:08:57.651Z,22.50
2018-06-02T07:11:25.164Z,22.50
2018-06-02T07:13:52.659Z,22.60
2018-06-02T07:16:20.131Z,22.60
2018-06-02T07:19:07.278Z,22.70
2018-06-02T07:21:35.563Z,22.90
2018-06-02T07:24:03.060Z,22.90
2018-06-02T07:26:30.527Z,22.90
2018-06-02T07:29:34.059Z,22.90
2018-06-02T07:34:33.561Z,22.90
2018-06-02T07:37:01.078Z,22.90
2018-06-02T07:42:10.380Z,23.10
2018-06-02T07:44:39.620Z,23.20
2018-06-02T07:47:08.308Z,23.20
2018-06-02T07:49:39.897Z,23.20
2018-06-02T07:52:08.283Z,23.30
2018-06-02T07:54:35.811Z,23.40
2018-06-02T07:57:04.147Z,23.50
2018-06-02T07:59:43.767Z,23.50
2018-06-02T08:02:11.574Z,23.60
2018-06-02T08:04:44.125Z,23.70
2018-06-02T08:09:45.516Z,23.80
2018-06-02T08:12:14.581Z,23.80
2018-06-02T08:14:44.471Z,23.80
2018-06-02T08:17:12.179Z,23.80
2018-06-02T08:19:44.096Z,23.90
2018-06-02T08:22:11.904Z,23.90
2018-06-02T08:24:40.520Z,24.00
2018-06-02T08:27:09.193Z,24.10
2018-06-02T08:29:37.215Z,24.20
2018-06-02T08:32:05.816Z,24.30
2018-06-02T08:34:33.299Z,24.30
2018-06-02T08:37:06.054Z,24.30
2018-06-02T08:42:17.525Z,24.50
2018-06-02T08:44:49.948Z,24.60
2018-06-02T08:47:18.545Z,24.70
2018-06-02T08:52:23.642Z,24.90
2018-06-02T08:57:28.178Z,25.00
2018-06-02T09:05:03.342Z,25.10
2018-06-02T09:07:35.765Z,25.20
2018-06-02T09:10:05.258Z,25.30
2018-06-02T09:12:33.155Z,25.30
2018-06-02T09:15:01.033Z,25.20
2018-06-02T09:17:30.447Z,25.20
2018-06-02T09:20:03.835Z,25.10
2018-06-02T09:22:31.627Z,25.20
2018-06-02T09:27:35.884Z,25.10
2018-06-02T09:32:58.563Z,25.20
2018-06-02T09:35:29.470Z,25.10
2018-06-02T09:38:01.235Z,25.10
2018-06-02T09:43:10.309Z,25.20
2018-06-02T09:48:43.682Z,25.20
2018-06-02T09:53:45.451Z,25.30
2018-06-02T09:56:17.103Z,25.40
2018-06-02T09:58:44.910Z,25.50
2018-06-02T10:01:13.573Z,25.60
2018-06-02T10:03:43.386Z,25.60
2018-06-02T10:06:12.332Z,25.70
2018-06-02T10:08:41.358Z,25.70
2018-06-02T10:11:13.810Z,25.70
2018-06-02T10:13:43.786Z,26.00
2018-06-02T10:16:13.415Z,26.00
2018-06-02T10:18:41.154Z,26.10
2018-06-02T10:21:10.499Z,26.10
2018-06-02T10:23:38.274Z,26.20
2018-06-02T10:31:13.474Z,26.30
2018-06-02T10:33:44.527Z,26.40
2018-06-02T10:36:12.322Z,26.40
2018-06-02T10:38:43.147Z,26.30
2018-06-02T10:41:10.659Z,26.30
2018-06-02T10:43:40.694Z,26.30
2018-06-02T10:46:10.840Z,26.30
2018-06-02T10:48:48.471Z,26.40
2018-06-02T10:51:16.084Z,26.50
2018-06-02T10:53:46.060Z,26.60
2018-06-02T10:56:14.277Z,26.60
2018-06-02T11:01:21.173Z,26.80
2018-06-02T11:03:48.927Z,26.80
2018-06-02T11:06:18.359Z,26.90
2018-06-02T11:08:46.143Z,27.10
2018-06-02T11:11:19.340Z,27.10
2018-06-02T11:13:48.035Z,27.10
2018-06-02T11:16:17.861Z,27.10
2018-06-02T11:21:22.854Z,27.00
2018-06-02T11:23:52.459Z,27.10
2018-06-02T11:32:23.990Z,27.10
2018-06-02T11:34:55.547Z,27.10
2018-06-02T11:43:04.512Z,27.20
2018-06-02T11:58:24.281Z,27.30
2018-06-02T12:08:50.380Z,27.60
2018-06-02T12:11:22.026Z,27.60
2018-06-02T12:19:17.528Z,27.90
2018-06-02T12:21:45.254Z,27.90
2018-06-02T12:24:14.910Z,27.90
2018-06-02T12:29:31.050Z,27.90
2018-06-02T12:40:01.291Z,28.10
2018-06-02T12:58:12.708Z,28.10
2018-06-02T13:29:38.741Z,27.90
2018-06-02T14:13:44.580Z,28.20
2018-06-02T14:19:42.238Z,28.30
2018-06-02T14:36:34.680Z,28.50
2018-06-02T15:04:30.506Z,35.90
2018-06-02T15:15:01.174Z,38.40
2018-06-02T15:17:37.041Z,39.10
2018-06-02T15:45:00.399Z,40.80
2018-06-02T15:50:06.241Z,41.10
2018-06-02T15:52:35.698Z,41.00
2018-06-02T15:55:06.499Z,41.00
2018-06-02T15:57:37.353Z,40.90
2018-06-02T16:00:07.633Z,40.80
2018-06-02T16:02:36.586Z,40.80
2018-06-02T16:05:08.695Z,40.60
2018-06-02T16:07:36.755Z,40.50
2018-06-02T16:10:15.082Z,40.10
2018-06-02T16:12:44.637Z,39.90
2018-06-02T16:15:13.621Z,39.70
2018-06-02T16:17:43.032Z,39.60
2018-06-02T16:20:15.835Z,39.50
2018-06-02T16:22:47.826Z,39.50
2018-06-02T16:25:16.255Z,39.30
2018-06-02T16:30:21.299Z,39.10
2018-06-02T16:32:50.948Z,39.10
2018-06-02T16:35:20.092Z,39.20
2018-06-02T16:37:49.723Z,38.90
2018-06-02T16:40:17.246Z,37.90
2018-06-02T16:42:45.502Z,36.70
2018-06-02T16:45:13.578Z,35.60
2018-06-02T16:50:37.750Z,33.90
2018-06-02T16:53:07.107Z,33.20
2018-06-02T16:55:37.527Z,31.80
2018-06-02T16:58:06.697Z,31.80
2018-06-02T17:03:10.876Z,30.60
2018-06-02T17:05:41.631Z,30.50
2018-06-02T17:10:53.463Z,29.70
2018-06-02T17:13:24.326Z,29.50
2018-06-02T17:15:52.701Z,29.10
2018-06-02T17:20:54.833Z,28.70
2018-06-02T17:34:01.229Z,28.00
2018-06-02T17:41:52.240Z,27.40
2018-06-02T17:44:20.860Z,27.20
2018-06-02T17:46:49.424Z,27.00
2018-06-02T17:51:56.425Z,26.80
2018-06-02T17:54:28.711Z,26.60
2018-06-02T18:23:15.466Z,25.50
2018-06-02T18:42:01.377Z,24.90
2018-06-02T18:57:37.685Z,24.20
2018-06-02T19:00:22.404Z,24.10
2018-06-02T19:02:51.840Z,24.00
2018-06-02T19:11:19.835Z,23.70
2018-06-02T19:19:00.245Z,23.50
2018-06-02T19:41:59.741Z,22.80
2018-06-02T19:47:16.059Z,22.70
2018-06-02T20:06:12.211Z,22.20
2018-06-02T20:13:45.148Z,22.00
2018-06-02T20:16:12.679Z,21.90
2018-06-02T20:18:50.807Z,21.90
2018-06-02T20:26:33.665Z,21.70
2018-06-02T20:29:05.896Z,21.70
2018-06-02T20:34:11.983Z,21.60
2018-06-02T20:39:21.135Z,21.50
2018-06-02T20:41:54.544Z,21.50
2018-06-02T20:44:22.103Z,21.40
2018-06-02T20:47:02.148Z,21.40
2018-06-02T20:49:33.840Z,21.40
2018-06-02T20:52:15.610Z,21.40
2018-06-02T20:54:44.723Z,21.30
2018-06-02T20:57:13.704Z,21.30
2018-06-02T20:59:45.892Z,21.30
2018-06-02T21:02:14.862Z,21.20
2018-06-02T21:04:43.293Z,21.20
2018-06-02T21:07:17.656Z,21.20
2018-06-02T21:09:47.439Z,21.20
2018-06-02T21:12:15.819Z,21.10
2018-06-02T21:17:21.541Z,21.10
2018-06-02T21:19:49.436Z,21.10
2018-06-02T21:22:17.348Z,21.00
2018-06-02T21:24:44.920Z,21.00
2018-06-02T21:27:13.946Z,21.00
2018-06-02T21:29:55.626Z,20.90
2018-06-02T21:32:25.359Z,20.90
2018-06-02T21:34:56.900Z,20.80
2018-06-02T21:37:25.638Z,20.80
2018-06-02T21:39:54.601Z,20.70
2018-06-02T21:42:27.348Z,20.70
2018-06-02T21:45:04.218Z,20.70
2018-06-02T21:47:32.882Z,20.60
2018-06-02T21:50:25.623Z,20.60
2018-06-02T21:52:55.035Z,20.50
2018-06-02T21:55:26.428Z,20.50
2018-06-02T21:57:54.439Z,20.50
2018-06-02T22:03:03.518Z,20.50
2018-06-02T22:05:31.643Z,20.50
2018-06-02T22:08:00.343Z,20.50
2018-06-02T22:13:48.425Z,20.40
2018-06-02T22:16:16.793Z,20.40
2018-06-02T22:18:44.813Z,20.30
2018-06-02T22:21:16.591Z,20.30
2018-06-02T22:23:46.417Z,20.30
2018-06-02T22:26:14.979Z,20.30
2018-06-02T22:28:43.552Z,20.30
2018-06-02T22:31:12.204Z,20.30
2018-06-02T22:33:39.686Z,20.30
2018-06-02T22:36:07.176Z,20.30
2018-06-02T22:38:34.735Z,20.20
2018-06-02T22:41:05.367Z,20.20
2018-06-02T22:43:36.081Z,20.20
2018-06-02T22:46:07.016Z,20.20
2018-06-02T22:48:35.425Z,20.20
2018-06-02T22:51:03.421Z,20.20
2018-06-02T22:53:38.686Z,20.20
2018-06-02T22:56:06.361Z,20.20
2018-06-02T22:58:34.142Z,20.20
2018-06-02T23:01:01.892Z,20.20
2018-06-02T23:03:33.207Z,20.10
2018-06-02T23:06:01.605Z,20.00
2018-06-02T23:08:30.827Z,20.00
2018-06-02T23:11:04.274Z,20.10
2018-06-02T23:13:31.764Z,20.00
2018-06-02T23:16:00.293Z,20.00
2018-06-02T23:18:28.834Z,20.00
2018-06-02T23:20:56.371Z,20.00
2018-06-02T23:23:23.888Z,19.90
2018-06-02T23:25:52.160Z,19.90
2018-06-02T23:28:20.403Z,19.90
2018-06-02T23:30:48.309Z,19.90
2018-06-02T23:33:17.306Z,19.90
2018-06-02T23:35:45.656Z,19.90
2018-06-02T23:38:13.158Z,19.90
2018-06-02T23:40:55.356Z,19.80
2018-06-02T23:43:23.335Z,19.80
2018-06-02T23:45:51.348Z,19.80
2018-06-02T23:48:19.117Z,19.80
2018-06-02T23:50:47.479Z,19.70
2018-06-02T23:53:15.338Z,19.70
2018-06-02T23:55:43.720Z,19.70
2018-06-02T23:58:11.688Z,19.70
